Time;durP1;ratioP1;P1;durP2;ratioP2;P2;SDS_P1;SDS_P2;PMS_P1;PMS_P2;Temp;Humidity;BMP_temperature;BMP_pressure;BME280_temperature;BME280_humidity;BME280_pressure;Samples;Min_cycle;Max_cycle;Signal;HPM_P1;HPM_P2
2022/09/29 00:00:50;;;;;;;7.62;4.20;;;;;;;17.88;61.37;98121.38;4495577;31;32474;-63
2022/09/29 00:03:19;;;;;;;9.45;4.57;;;;;;;17.87;61.46;98122.41;4487623;31;35138;-63
2022/09/29 00:05:51;;;;;;;7.25;4.35;;;;;;;17.85;61.62;98121.78;4488467;31;33322;-63
2022/09/29 00:08:22;;;;;;;6.57;3.92;;;;;;;17.86;61.48;98120.75;4499903;31;34242;-63
2022/09/29 00:10:49;;;;;;;6.35;4.10;;;;;;;17.79;61.72;98113.63;4499940;31;33942;-63
2022/09/29 00:13:17;;;;;;;12.02;3.28;;;;;;;17.83;61.67;98117.59;4491085;31;33833;-63
2022/09/29 00:15:55;;;;;;;6.12;3.97;;;;;;;17.92;61.34;98119.94;4493153;31;33423;-63
2022/09/29 00:18:22;;;;;;;10.60;4.28;;;;;;;17.90;61.49;98119.28;4499877;31;34466;-63
2022/09/29 00:21:18;;;;;;;6.57;4.03;;;;;;;18.03;61.27;98125.81;4492706;31;34832;-62
2022/09/29 00:23:47;;;;;;;7.82;5.28;;;;;;;18.07;61.12;98125.22;4488373;31;33883;-63
2022/09/29 00:26:21;;;;;;;9.55;4.35;;;;;;;17.93;61.49;98118.91;4495312;31;35009;-62
2022/09/29 00:28:51;;;;;;;6.45;4.25;;;;;;;17.96;61.54;98111.41;4489223;31;33377;-62
2022/09/29 00:31:20;;;;;;;5.57;3.15;;;;;;;18.00;61.29;98120.81;4487611;31;33646;-63
2022/09/29 00:33:48;;;;;;;8.35;4.97;;;;;;;18.06;61.03;98114.59;4493039;31;33420;-63
2022/09/29 00:36:17;;;;;;;7.15;4.80;;;;;;;18.03;61.01;98120.41;4492593;31;34234;-62
2022/09/29 00:38:46;;;;;;;8.15;4.35;;;;;;;18.02;61.10;98114.16;4487465;31;33453;-62
2022/09/29 00:41:17;;;;;;;5.60;3.58;;;;;;;18.03;61.00;98117.69;4488779;31;32603;-63
2022/09/29 00:44:03;;;;;;;5.12;3.65;;;;;;;18.01;60.94;98107.09;4488125;31;35045;-63
2022/09/29 00:46:42;;;;;;;7.15;4.75;;;;;;;17.93;61.00;98109.94;4489357;31;32581;-62
2022/09/29 00:49:22;;;;;;;8.02;3.97;;;;;;;17.86;60.95;98109.91;4491042;31;32405;-63
2022/09/29 00:52:01;;;;;;;8.02;5.30;;;;;;;17.89;61.00;98105.97;4488035;31;34642;-63
2022/09/29 00:54:33;;;;;;;7.78;4.62;;;;;;;17.91;60.61;98118.28;4491654;31;35026;-63
2022/09/29 00:57:02;;;;;;;4.40;2.60;;;;;;;17.87;60.84;98127.00;4480134;31;32446;-69
2022/09/29 00:59:39;;;;;;;5.72;3.55;;;;;;;17.92;60.64;98124.53;4478433;31;33440;-62
2022/09/29 01:02:07;;;;;;;6.95;4.47;;;;;;;17.60;61.89;98120.56;4481155;31;33655;-62
2022/09/29 01:04:35;;;;;;;7.78;5.45;;;;;;;17.78;61.34;98114.66;4490450;31;34897;-62
2022/09/29 01:07:03;;;;;;;8.15;3.92;;;;;;;17.82;61.03;98103.25;4488771;31;33775;-62
2022/09/29 01:09:33;;;;;;;6.53;3.80;;;;;;;17.78;61.20;98093.84;4486104;31;33725;-62
2022/09/29 01:12:01;;;;;;;5.43;3.28;;;;;;;17.85;61.04;98100.12;4492961;31;33844;-64
2022/09/29 01:14:29;;;;;;;7.50;4.60;;;;;;;17.89;60.80;98095.97;4490193;31;32653;-64
2022/09/29 01:16:57;;;;;;;7.57;4.10;;;;;;;17.89;60.81;98101.41;4481633;31;34135;-62
2022/09/29 01:19:34;;;;;;;10.15;4.47;;;;;;;17.96;60.61;98097.88;4485294;31;33152;-62
2022/09/29 01:22:20;;;;;;;11.05;3.58;;;;;;;17.94;60.64;98098.06;4488897;31;33796;-63
2022/09/29 01:24:47;;;;;;;;;;;;;;;17.85;60.85;98097.44;4493910;31;34930;-62
2022/09/29 01:27:27;;;;;;;6.43;3.62;;;;;;;17.96;60.50;98097.88;4482457;31;33925;-62
2022/09/29 01:30:17;;;;;;;5.55;3.90;;;;;;;17.85;60.73;98102.00;4492038;31;32190;-62
2022/09/29 01:33:14;;;;;;;7.68;4.62;;;;;;;17.81;60.56;98096.13;4484467;31;35031;-63
2022/09/29 01:35:57;;;;;;;7.43;4.82;;;;;;;17.78;60.70;98093.00;4481898;31;34936;-62
2022/09/29 01:38:31;;;;;;;5.40;3.40;;;;;;;17.68;60.81;98096.03;4489258;31;32741;-62
2022/09/29 01:41:20;;;;;;;7.70;3.70;;;;;;;17.68;60.78;98099.59;4487522;31;33734;-62
2022/09/29 01:44:05;;;;;;;8.98;3.67;;;;;;;17.74;60.57;98086.31;4484088;31;34799;-62
2022/09/29 01:46:36;;;;;;;7.30;4.05;;;;;;;17.75;60.59;98087.97;4478449;31;35014;-62
2022/09/29 01:49:05;;;;;;;16.83;5.45;;;;;;;17.61;60.93;98077.06;4479474;31;33787;-62
2022/09/29 01:51:53;;;;;;;7.82;5.25;;;;;;;17.65;60.90;98074.81;4480950;31;33318;-62
2022/09/29 01:54:31;;;;;;;7.12;3.30;;;;;;;17.73;60.55;98069.25;4486203;31;33453;-62
2022/09/29 01:57:07;;;;;;;10.13;4.82;;;;;;;17.60;60.75;98072.72;4478484;31;33803;-62
2022/09/29 01:59:50;;;;;;;8.70;5.45;;;;;;;17.56;60.99;98067.88;4478257;31;34926;-63
2022/09/29 02:02:24;;;;;;;6.80;4.32;;;;;;;17.56;60.94;98067.88;4485773;31;32787;-63
2022/09/29 02:04:58;;;;;;;7.57;3.22;;;;;;;17.51;61.04;98067.66;4479575;31;34656;-62
2022/09/29 02:07:32;;;;;;;6.35;3.83;;;;;;;17.52;61.16;98072.03;4489848;31;33775;-62
2022/09/29 02:10:03;;;;;;;8.55;4.53;;;;;;;17.48;61.38;98074.31;4488960;31;34552;-62
2022/09/29 02:12:33;;;;;;;8.02;4.75;;;;;;;17.45;61.45;98064.72;4480049;31;32166;-62
2022/09/29 02:15:02;;;;;;;7.85;3.62;;;;;;;17.29;62.09;98069.62;4481251;31;34293;-62
2022/09/29 02:17:32;;;;;;;7.35;4.68;;;;;;;17.44;61.54;98073.03;4486362;31;33195;-62
2022/09/29 02:20:02;;;;;;;7.70;4.25;;;;;;;17.42;61.63;98062.41;4484334;31;33842;-62
2022/09/29 02:22:31;;;;;;;7.35;4.35;;;;;;;17.51;61.45;98065.78;4490035;31;33526;-62
2022/09/29 02:24:59;;;;;;;6.50;4.30;;;;;;;17.50;61.71;98074.94;4490868;31;33887;-62
2022/09/29 02:27:32;;;;;;;10.52;6.75;;;;;;;17.56;61.15;98070.59;4480655;31;33869;-62
2022/09/29 02:29:59;;;;;;;9.13;5.32;;;;;;;17.44;61.39;98073.03;4490093;31;33818;-62
2022/09/29 02:32:28;;;;;;;9.77;5.53;;;;;;;17.15;62.53;98083.03;4487865;31;33752;-62
2022/09/29 02:34:56;;;;;;;10.65;6.43;;;;;;;17.33;61.94;98085.22;4490263;31;34760;-62
2022/09/29 02:37:45;;;;;;;6.37;4.25;;;;;;;17.30;62.29;98090.19;4490059;31;34693;-62
2022/09/29 02:40:35;;;;;;;7.95;4.80;;;;;;;17.30;62.31;98098.31;4488259;31;32421;-62
2022/09/29 02:43:12;;;;;;;8.80;5.03;;;;;;;17.26;62.53;98094.34;4488396;31;31729;-62
2022/09/29 02:45:53;;;;;;;8.85;5.62;;;;;;;17.29;62.37;98102.06;4494036;31;33795;-62
2022/09/29 02:48:34;;;;;;;9.35;6.07;;;;;;;17.02;63.71;98106.44;4486603;31;33870;-62
2022/09/29 02:51:14;;;;;;;7.78;4.75;;;;;;;17.02;64.01;98106.44;4484413;31;33484;-62
2022/09/29 02:53:41;;;;;;;8.02;5.32;;;;;;;17.27;63.28;98118.50;4495484;31;32133;-62
2022/09/29 02:56:10;;;;;;;8.00;4.62;;;;;;;17.26;63.62;98111.41;4494046;31;32078;-62
2022/09/29 02:58:49;;;;;;;10.63;5.82;;;;;;;17.43;63.19;98117.31;4488024;31;35098;-62
2022/09/29 03:01:16;;;;;;;10.00;6.20;;;;;;;17.50;63.01;98103.87;4484355;31;34570;-63
2022/09/29 03:03:44;;;;;;;19.45;5.90;;;;;;;17.51;62.92;98111.78;4492848;31;34400;-63
2022/09/29 03:06:12;;;;;;;10.20;6.97;;;;;;;17.49;63.17;98113.00;4497647;31;33542;-62
2022/09/29 03:08:40;;;;;;;10.10;4.57;;;;;;;17.27;63.95;98112.22;4494469;31;33543;-63
2022/09/29 03:11:07;;;;;;;9.40;5.28;;;;;;;17.65;62.88;98112.69;4499532;31;32698;-62
2022/09/29 03:13:35;;;;;;;11.12;4.87;;;;;;;17.70;62.74;98110.22;4497372;31;34309;-63
2022/09/29 03:16:02;;;;;;;8.77;5.40;;;;;;;17.70;62.72;98104.81;4494479;31;33397;-62
2022/09/29 03:18:30;;;;;;;11.50;6.37;;;;;;;17.82;62.33;98105.13;4491004;31;33792;-63
2022/09/29 03:20:57;;;;;;;9.60;5.93;;;;;;;17.69;62.75;98100.44;4497804;31;33871;-63
2022/09/29 03:23:25;;;;;;;9.57;6.28;;;;;;;17.64;63.03;98106.44;4498762;31;33584;-63
2022/09/29 03:25:53;;;;;;;11.18;7.32;;;;;;;17.72;62.79;98105.47;4500317;31;34693;-63
2022/09/29 03:28:21;;;;;;;11.65;7.57;;;;;;;17.55;63.18;98101.38;4496195;31;33867;-63
2022/09/29 03:30:48;;;;;;;10.77;5.65;;;;;;;17.57;63.13;98104.75;4500003;31;33769;-63
2022/09/29 03:33:17;;;;;;;9.05;5.90;;;;;;;17.78;62.35;98095.72;4495764;31;33492;-62
2022/09/29 03:35:44;;;;;;;8.38;5.00;;;;;;;17.56;63.12;98093.09;4498708;31;33593;-62
2022/09/29 03:38:12;;;;;;;10.43;5.68;;;;;;;17.32;63.89;98083.56;4494538;31;33833;-62
2022/09/29 03:40:39;;;;;;;7.30;4.87;;;;;;;17.70;62.76;98083.16;4496327;31;33779;-62
2022/09/29 03:43:07;;;;;;;9.63;5.53;;;;;;;17.73;62.47;98077.34;4499580;31;33419;-62
2022/09/29 03:45:35;;;;;;;12.32;6.43;;;;;;;17.76;62.22;98066.13;4496908;31;32071;-62
2022/09/29 03:48:02;;;;;;;7.25;4.95;;;;;;;17.80;62.28;98069.28;4499573;31;34937;-62
2022/09/29 03:50:30;;;;;;;9.43;4.65;;;;;;;17.82;62.22;98073.47;4496245;31;33725;-63
2022/09/29 03:52:58;;;;;;;12.27;6.72;;;;;;;17.83;61.99;98069.72;4495684;31;34532;-62
2022/09/29 03:55:25;;;;;;;10.23;6.18;;;;;;;17.76;62.41;98057.19;4496538;31;33862;-62
2022/09/29 03:57:52;;;;;;;10.43;5.80;;;;;;;17.87;61.98;98052.03;4489963;31;33891;-63
2022/09/29 04:00:20;;;;;;;7.43;4.10;;;;;;;17.81;62.17;98052.00;4490309;31;32413;-63
2022/09/29 04:02:48;;;;;;;8.18;5.78;;;;;;;17.73;62.26;98058.41;4497965;31;34455;-63
2022/09/29 04:05:17;;;;;;;10.88;6.37;;;;;;;17.74;62.23;98061.94;4497911;31;34948;-63
2022/09/29 04:07:44;;;;;;;7.60;5.32;;;;;;;17.74;62.39;98060.06;4495185;31;35564;-63
2022/09/29 04:10:12;;;;;;;8.18;4.95;;;;;;;17.78;62.29;98055.94;4493271;31;32972;-63
2022/09/29 04:12:40;;;;;;;8.98;5.87;;;;;;;17.83;62.12;98053.50;4485363;32;34294;-63
2022/09/29 04:15:08;;;;;;;10.88;5.57;;;;;;;17.87;61.81;98051.22;4492968;31;35891;-63
2022/09/29 04:17:35;;;;;;;9.77;5.45;;;;;;;17.80;62.01;98047.66;4485681;31;35154;-63
2022/09/29 04:20:03;;;;;;;8.82;5.72;;;;;;;17.85;61.81;98054.12;4491799;31;35008;-63
2022/09/29 04:22:30;;;;;;;9.23;5.20;;;;;;;17.80;62.08;98053.06;4494901;31;34237;-63
2022/09/29 04:24:58;;;;;;;7.95;4.85;;;;;;;17.80;62.35;98050.34;4491937;31;33887;-63
2022/09/29 04:27:26;;;;;;;8.25;4.80;;;;;;;17.83;62.39;98058.06;4495673;31;33790;-63
2022/09/29 04:29:53;;;;;;;15.43;7.10;;;;;;;17.87;62.19;98053.91;4498815;31;33913;-63
2022/09/29 04:32:21;;;;;;;8.95;5.72;;;;;;;17.83;62.18;98056.19;4490252;31;33394;-63
2022/09/29 04:34:49;;;;;;;8.40;4.78;;;;;;;17.88;62.17;98055.56;4492348;31;34865;-63
2022/09/29 04:37:16;;;;;;;7.10;5.55;;;;;;;17.78;62.57;98052.41;4496110;31;34005;-63
2022/09/29 04:39:44;;;;;;;7.30;4.68;;;;;;;17.68;62.89;98063.59;4499847;31;34861;-63
2022/09/29 04:42:12;;;;;;;7.57;4.75;;;;;;;17.88;62.29;98048.31;4494675;31;33228;-63
2022/09/29 04:44:39;;;;;;;7.47;4.55;;;;;;;17.92;61.97;98060.41;4499856;31;34143;-63
2022/09/29 04:47:07;;;;;;;10.45;6.55;;;;;;;17.88;62.06;98061.00;4488085;31;33821;-63
2022/09/29 04:49:34;;;;;;;11.85;5.32;;;;;;;17.78;62.41;98064.06;4497007;31;33286;-63
2022/09/29 04:52:02;;;;;;;13.07;7.93;;;;;;;17.89;62.12;98062.69;4491395;31;31564;-63
2022/09/29 04:54:33;;;;;;;12.50;8.25;;;;;;;17.65;62.94;98054.00;4484159;31;33967;-62
2022/09/29 04:57:06;;;;;;;6.90;4.65;;;;;;;17.71;62.73;98060.47;4492614;31;34030;-62
2022/09/29 04:59:33;;;;;;;10.00;6.43;;;;;;;17.72;62.77;98064.00;4499395;31;33688;-62
2022/09/29 05:02:01;;;;;;;10.77;7.15;;;;;;;17.70;62.91;98067.75;4496997;31;33515;-62
2022/09/29 05:04:28;;;;;;;9.07;6.32;;;;;;;17.54;63.45;98069.97;4499626;31;33799;-62
2022/09/29 05:06:56;;;;;;;14.00;8.50;;;;;;;17.60;63.40;98071.88;4495076;31;33972;-62
2022/09/29 05:09:23;;;;;;;13.57;8.02;;;;;;;17.74;63.02;98073.59;4497737;31;34730;-62
2022/09/29 05:11:54;;;;;;;15.23;10.32;;;;;;;17.80;62.75;98072.84;4495869;31;35189;-62
2022/09/29 05:14:21;;;;;;;15.15;11.02;;;;;;;17.74;62.98;98084.44;4498132;31;32813;-62
2022/09/29 05:16:49;;;;;;;14.80;10.68;;;;;;;17.81;62.74;98089.91;4497732;31;35681;-62
2022/09/29 05:19:16;;;;;;;12.32;9.35;;;;;;;17.70;63.32;98081.28;4499772;31;32674;-62
2022/09/29 05:21:45;;;;;;;10.63;7.68;;;;;;;17.64;63.52;98083.97;4497620;31;32384;-61
2022/09/29 05:24:13;;;;;;;13.43;9.82;;;;;;;17.79;62.94;98083.88;4496188;31;33622;-62
2022/09/29 05:26:40;;;;;;;12.07;7.35;;;;;;;17.55;63.65;98094.09;4496446;31;36197;-61
2022/09/29 05:29:08;;;;;;;13.73;9.40;;;;;;;17.75;63.13;98087.97;4499972;31;35152;-61
2022/09/29 05:31:35;;;;;;;13.90;8.38;;;;;;;17.57;63.79;98089.34;4492629;31;33322;-62
2022/09/29 05:34:03;;;;;;;8.32;5.85;;;;;;;17.74;63.36;98089.84;4499227;31;34032;-61
2022/09/29 05:36:31;;;;;;;10.40;7.00;;;;;;;17.72;63.36;98086.53;4496338;31;35292;-62
2022/09/29 05:38:58;;;;;;;11.80;8.60;;;;;;;17.75;63.23;98093.38;4488641;31;32552;-61
2022/09/29 05:41:26;;;;;;;9.07;5.82;;;;;;;17.74;63.29;98089.84;4491645;31;32584;-62
2022/09/29 05:43:54;;;;;;;7.85;4.10;;;;;;;17.64;63.45;98095.63;4492462;31;33669;-62
2022/09/29 05:46:22;;;;;;;8.35;4.68;;;;;;;17.58;63.69;98101.81;4494171;31;33908;-62
2022/09/29 05:48:50;;;;;;;6.18;4.37;;;;;;;17.20;64.58;98094.09;4496891;31;34254;-62
2022/09/29 05:51:22;;;;;;;9.20;4.47;;;;;;;17.43;63.97;98107.38;4489532;31;32036;-62
2022/09/29 05:53:50;;;;;;;6.75;3.47;;;;;;;17.48;63.90;98109.47;4484368;31;35063;-62
2022/09/29 05:56:21;;;;;;;6.00;3.97;;;;;;;17.54;63.51;98105.97;4493729;31;35158;-62
2022/09/29 05:58:49;;;;;;;6.70;4.50;;;;;;;17.33;64.23;98108.72;4497644;31;32340;-62
2022/09/29 06:01:19;;;;;;;7.05;4.07;;;;;;;17.22;64.89;98099.31;4496133;31;34637;-61
2022/09/29 06:03:47;;;;;;;7.43;4.68;;;;;;;17.44;64.17;98111.75;4496562;31;33751;-62
2022/09/29 06:06:18;;;;;;;7.43;4.00;;;;;;;17.50;63.69;98118.22;4498132;31;34567;-62
2022/09/29 06:08:46;;;;;;;4.87;3.25;;;;;;;17.55;63.70;98118.44;4494715;31;33742;-62
2022/09/29 06:11:35;;;;;;;6.32;3.53;;;;;;;17.29;64.29;98121.81;4493006;31;34170;-62
2022/09/29 06:14:03;;;;;;;4.90;3.03;;;;;;;17.29;64.58;98119.13;4496599;31;35009;-61
2022/09/29 06:16:31;;;;;;;3.58;2.05;;;;;;;17.05;64.86;98123.09;4498048;31;34357;-61
2022/09/29 06:19:00;;;;;;;4.87;2.83;;;;;;;16.96;64.42;98126.97;4493319;31;35063;-62
2022/09/29 06:21:29;;;;;;;3.22;1.62;;;;;;;16.93;64.13;98128.19;4493925;31;32988;-62
2022/09/29 06:23:57;;;;;;;3.05;1.85;;;;;;;16.25;65.69;98133.09;4496913;31;33811;-61
2022/09/29 06:26:25;;;;;;;4.12;2.03;;;;;;;16.62;64.50;98135.75;4498001;31;34822;-61
2022/09/29 06:28:54;;;;;;;1.92;1.23;;;;;;;16.53;64.36;98137.72;4489560;31;33358;-62
2022/09/29 06:31:25;;;;;;;2.30;1.27;;;;;;;16.84;63.54;98136.63;4493412;31;33296;-61
2022/09/29 06:33:56;;;;;;;3.85;1.67;;;;;;;16.51;64.29;98139.81;4493633;31;32833;-62
2022/09/29 06:39:13;;;;;;;1.12;0.75;;;;;;;16.42;64.71;98149.06;4494304;31;33642;-61
2022/09/29 06:41:47;;;;;;;2.72;1.62;;;;;;;16.62;63.91;98155.50;4496295;31;33736;-61
2022/09/29 06:44:14;;;;;;;2.25;1.27;;;;;;;16.50;63.99;98157.03;4492793;31;33552;-62
2022/09/29 06:46:42;;;;;;;2.97;0.95;;;;;;;16.27;64.55;98163.41;4488235;31;33576;-62
2022/09/29 06:49:12;;;;;;;2.28;1.27;;;;;;;16.14;65.23;98160.56;4492153;31;34625;-61
2022/09/29 06:51:39;;;;;;;1.70;0.80;;;;;;;16.22;64.94;98156.94;4495393;31;31187;-75
2022/09/29 06:54:15;;;;;;;1.17;0.82;;;;;;;16.35;64.63;98151.69;4498045;31;35459;-62
2022/09/29 06:56:47;;;;;;;1.52;1.08;;;;;;;16.17;65.31;98146.69;4490956;31;33730;-62
2022/09/29 06:59:14;;;;;;;2.05;0.77;;;;;;;16.52;64.65;98149.56;4501506;31;33920;-62
2022/09/29 07:01:42;;;;;;;2.97;1.08;;;;;;;16.28;65.81;98148.06;4494713;31;34124;-62
2022/09/29 07:04:10;;;;;;;3.50;1.40;;;;;;;16.48;65.78;98159.09;4495694;31;35078;-63
2022/09/29 07:06:37;;;;;;;1.65;1.00;;;;;;;15.42;69.11;98163.06;4497197;31;33884;-62
2022/09/29 07:09:05;;;;;;;2.05;1.23;;;;;;;16.08;66.68;98166.72;4489134;31;32311;-62
2022/09/29 07:11:32;;;;;;;1.67;1.10;;;;;;;16.08;66.08;98174.81;4493046;31;33317;-62
2022/09/29 07:14:00;;;;;;;1.17;0.73;;;;;;;16.10;66.13;98177.31;4500760;31;32532;-62
2022/09/29 07:16:28;;;;;;;3.45;1.05;;;;;;;16.12;66.51;98175.28;4495314;31;33651;-62
2022/09/29 07:18:55;;;;;;;1.08;0.88;;;;;;;15.75;67.75;98172.50;4496047;31;34660;-61
2022/09/29 07:21:23;;;;;;;14.27;1.25;;;;;;;15.48;68.59;98165.03;4495445;31;34512;-64
2022/09/29 07:23:50;;;;;;;1.67;0.85;;;;;;;15.17;69.96;98165.16;4499114;31;32613;-63
2022/09/29 07:26:18;;;;;;;5.35;1.37;;;;;;;15.04;69.92;98173.84;4499956;31;34747;-63
2022/09/29 07:28:46;;;;;;;4.70;1.60;;;;;;;15.78;67.80;98172.13;4498192;31;33786;-63
2022/09/29 07:31:16;;;;;;;3.12;1.02;;;;;;;15.44;69.42;98182.56;4496484;31;34786;-62
2022/09/29 07:33:45;;;;;;;2.00;1.42;;;;;;;15.68;69.49;98178.84;4496968;31;35252;-63
2022/09/29 07:36:14;;;;;;;2.20;1.67;;;;;;;15.53;70.67;98176.91;4500244;31;35211;-63
2022/09/29 07:38:45;;;;;;;2.58;0.90;;;;;;;15.91;69.25;98190.34;4499064;31;34737;-62
2022/09/29 07:41:13;;;;;;;2.97;0.85;;;;;;;16.12;68.46;98186.91;4493186;31;33338;-63
2022/09/29 07:43:40;;;;;;;2.37;1.23;;;;;;;16.65;66.83;98197.50;4498271;31;34775;-63
2022/09/29 07:46:08;;;;;;;3.40;1.27;;;;;;;16.66;66.78;98200.03;4484015;31;33517;-63
2022/09/29 07:48:37;;;;;;;2.35;1.48;;;;;;;16.91;65.93;98205.91;4493718;31;33719;-62
2022/09/29 07:51:07;;;;;;;2.55;1.23;;;;;;;17.01;65.83;98202.87;4496930;31;33314;-63
2022/09/29 07:53:37;;;;;;;3.33;1.75;;;;;;;16.82;66.41;98217.91;4497715;31;32702;-63
2022/09/29 07:56:08;;;;;;;2.65;1.52;;;;;;;16.57;67.29;98213.84;4499474;31;35174;-63
2022/09/29 07:58:36;;;;;;;2.00;1.37;;;;;;;16.72;66.82;98220.00;4497832;31;32930;-63
2022/09/29 08:01:09;;;;;;;1.50;1.12;;;;;;;16.92;66.29;98214.88;4495168;31;31396;-63
2022/09/29 08:03:38;;;;;;;0.93;0.85;;;;;;;16.99;65.61;98205.78;4496540;31;33492;-63
2022/09/29 08:06:06;;;;;;;2.12;1.08;;;;;;;17.08;65.37;98200.25;4496760;31;34966;-63
2022/09/29 08:08:38;;;;;;;0.85;0.70;;;;;;;16.67;66.99;98200.88;4500612;31;34927;-63
2022/09/29 08:11:11;;;;;;;2.70;1.48;;;;;;;16.82;66.88;98204.38;4497260;31;31393;-63
2022/09/29 08:13:55;;;;;;;2.17;1.42;;;;;;;16.67;66.52;98204.41;4499012;31;33636;-63
2022/09/29 08:16:22;;;;;;;2.53;1.33;;;;;;;16.49;67.02;98202.09;4498473;31;32715;-63
2022/09/29 08:18:50;;;;;;;1.95;1.15;;;;;;;16.75;67.46;98208.84;4500206;31;34249;-62
2022/09/29 08:21:18;;;;;;;3.33;1.37;;;;;;;17.06;67.27;98218.53;4491168;31;34452;-63
2022/09/29 08:23:45;;;;;;;1.83;1.05;;;;;;;16.45;69.89;98227.00;4486730;31;34716;-67
2022/09/29 08:26:16;;;;;;;1.65;1.10;;;;;;;17.21;67.11;98222.84;4493833;31;34103;-63
2022/09/29 08:28:44;;;;;;;2.70;1.50;;;;;;;16.89;68.25;98221.50;4492150;31;33861;-64
2022/09/29 08:31:19;;;;;;;1.17;0.82;;;;;;;16.95;68.21;98218.03;4491985;31;34496;-64
2022/09/29 08:33:50;;;;;;;2.53;1.07;;;;;;;16.54;69.26;98229.38;4498673;31;32550;-63
2022/09/29 08:36:19;;;;;;;2.83;1.70;;;;;;;16.46;69.41;98232.19;4498737;31;34078;-65
2022/09/29 08:38:49;;;;;;;2.42;1.27;;;;;;;17.28;66.05;98232.87;4497801;31;33602;-70
2022/09/29 08:41:42;;;;;;;1.85;1.20;;;;;;;17.27;65.72;98225.78;4497654;31;33540;-62
2022/09/29 08:44:18;;;;;;;2.45;1.12;;;;;;;17.33;65.63;98223.13;4484916;31;35185;-64
2022/09/29 08:47:12;;;;;;;1.77;1.08;;;;;;;17.17;65.53;98223.41;4484570;31;32656;-65
2022/09/29 08:49:46;;;;;;;1.35;0.88;;;;;;;16.71;67.44;98227.28;4481887;31;33775;-64
2022/09/29 08:52:18;;;;;;;1.20;0.85;;;;;;;17.04;66.62;98224.13;4482906;31;33817;-64
2022/09/29 08:54:46;;;;;;;1.17;0.80;;;;;;;17.45;65.31;98239.69;4499232;31;32347;-64
2022/09/29 08:57:17;;;;;;;1.65;1.17;;;;;;;17.33;65.67;98239.38;4496267;31;32792;-64
2022/09/29 08:59:57;;;;;;;4.00;1.73;;;;;;;17.48;65.77;98247.41;4493590;31;34017;-64
2022/09/29 09:02:36;;;;;;;1.55;0.98;;;;;;;16.94;67.53;98247.94;4484528;31;34454;-63
2022/09/29 09:05:42;;;;;;;2.95;1.15;;;;;;;17.26;66.80;98245.75;4481838;31;32776;-63
2022/09/29 09:08:24;;;;;;;2.65;0.93;;;;;;;17.03;66.90;98246.78;4487880;31;34206;-62
2022/09/29 09:11:31;;;;;;;2.75;1.15;;;;;;;17.08;65.43;98252.47;4488919;31;33724;-62
2022/09/29 09:14:23;;;;;;;1.20;0.82;;;;;;;17.06;67.63;98248.28;4486854;31;34535;-62
2022/09/29 09:17:10;;;;;;;1.75;0.85;;;;;;;17.35;64.70;98253.53;4485343;31;33983;-63
2022/09/29 09:19:57;;;;;;;1.67;1.00;;;;;;;17.54;65.46;98253.91;4493167;31;35025;-62
2022/09/29 09:23:07;;;;;;;1.40;0.85;;;;;;;17.17;64.18;98258.56;4469853;31;33332;-62
2022/09/29 09:25:38;;;;;;;1.25;0.95;;;;;;;17.52;63.62;98274.91;4481757;31;32002;-63
2022/09/29 09:28:30;;;;;;;1.45;1.05;;;;;;;17.44;63.06;98273.19;4481070;31;32178;-64
2022/09/29 09:31:04;;;;;;;2.15;1.10;;;;;;;17.74;63.29;98267.59;4488878;31;34092;-64
2022/09/29 09:33:58;;;;;;;1.17;0.85;;;;;;;17.34;64.59;98269.97;4495402;31;32436;-64
2022/09/29 09:36:47;;;;;;;0.75;0.68;;;;;;;17.76;64.21;98265.53;4495346;31;33301;-64
2022/09/29 09:40:03;;;;;;;2.37;1.15;;;;;;;17.02;64.93;98274.03;4492042;31;33863;-64
2022/09/29 09:42:33;;;;;;;1.37;0.82;;;;;;;17.68;62.84;98271.91;4503639;31;33930;-64
2022/09/29 09:45:07;;;;;;;1.73;1.08;;;;;;;17.93;62.56;98275.88;4489545;31;32104;-64
2022/09/29 09:47:41;;;;;;;3.87;1.10;;;;;;;17.58;64.26;98285.78;4489503;31;33487;-63
2022/09/29 09:50:16;;;;;;;1.23;1.02;;;;;;;17.61;63.95;98279.97;4485990;31;34446;-63
2022/09/29 09:53:03;;;;;;;1.75;1.23;;;;;;;17.82;62.87;98275.62;4482943;31;33696;-62
2022/09/29 09:55:35;;;;;;;1.65;1.00;;;;;;;18.03;60.31;98272.00;4482591;31;34004;-62
2022/09/29 09:58:08;;;;;;;1.73;1.08;;;;;;;18.34;59.46;98272.41;4496218;31;33381;-63
2022/09/29 10:00:43;;;;;;;1.60;1.12;;;;;;;18.21;60.61;98261.50;4483473;31;33340;-63
2022/09/29 10:03:13;;;;;;;1.35;0.75;;;;;;;18.03;63.09;98264.72;4480591;31;33629;-63
2022/09/29 10:05:45;;;;;;;1.45;0.88;;;;;;;18.47;58.98;98263.50;4481645;31;34344;-63
2022/09/29 10:08:24;;;;;;;2.08;1.20;;;;;;;18.71;58.88;98256.72;4495617;31;34438;-62
2022/09/29 10:10:52;;;;;;;2.25;1.35;;;;;;;18.97;56.90;98266.88;4483389;31;34911;-62
2022/09/29 10:13:28;;;;;;;1.90;1.30;;;;;;;18.95;56.44;98276.22;4491190;31;32255;-63
2022/09/29 10:15:56;;;;;;;1.45;1.02;;;;;;;18.98;57.02;98273.94;4488100;31;33855;-62
2022/09/29 10:18:37;;;;;;;1.62;1.02;;;;;;;19.31;55.97;98274.00;4480237;31;35031;-63
2022/09/29 10:21:22;;;;;;;1.95;1.15;;;;;;;18.92;58.18;98263.91;4479187;31;35126;-63
2022/09/29 10:23:54;;;;;;;1.67;1.00;;;;;;;19.60;56.28;98262.97;4481080;31;33853;-63
2022/09/29 10:26:31;;;;;;;1.48;0.90;;;;;;;19.54;56.45;98260.03;4488924;31;33766;-62
2022/09/29 10:29:22;;;;;;;2.40;1.20;;;;;;;19.47;55.37;98267.34;4498193;31;33293;-64
2022/09/29 10:31:59;;;;;;;1.77;0.95;;;;;;;19.46;55.29;98271.13;4489788;31;32228;-63
2022/09/29 10:34:28;;;;;;;0.80;0.50;;;;;;;19.68;56.36;98273.66;4497249;31;34105;-63
2022/09/29 10:37:22;;;;;;;1.67;0.85;;;;;;;19.97;53.83;98280.53;4495734;31;34759;-63
2022/09/29 10:39:50;;;;;;;0.77;0.77;;;;;;;20.35;53.38;98269.81;4496756;31;31966;-64
2022/09/29 10:42:31;;;;;;;0.98;0.68;;;;;;;20.47;51.49;98273.50;4492546;31;34909;-63
2022/09/29 10:45:28;;;;;;;1.10;0.40;;;;;;;20.25;51.09;98285.69;4491572;31;34112;-63
2022/09/29 10:47:56;;;;;;;0.80;0.80;;;;;;;20.55;48.26;98277.94;4492481;31;32766;-63
2022/09/29 10:50:26;;;;;;;1.67;0.60;;;;;;;19.99;51.09;98286.56;4496813;31;34503;-63
2022/09/29 10:52:58;;;;;;;1.77;0.88;;;;;;;20.34;51.42;98286.31;4490455;31;32419;-63
2022/09/29 10:55:28;;;;;;;1.12;0.70;;;;;;;20.21;52.57;98273.59;4496301;31;35090;-63
2022/09/29 10:57:57;;;;;;;1.52;0.85;;;;;;;20.15;51.15;98286.13;4491601;31;33899;-63
2022/09/29 11:00:33;;;;;;;2.10;0.68;;;;;;;19.93;51.25;98288.25;4487644;31;34442;-63
2022/09/29 11:03:16;;;;;;;1.70;0.73;;;;;;;20.07;50.19;98283.66;4488362;31;35149;-63
2022/09/29 11:06:03;;;;;;;2.37;1.10;;;;;;;20.15;51.08;98285.31;4495480;31;34723;-63
2022/09/29 11:08:30;;;;;;;1.05;0.73;;;;;;;20.12;53.11;98289.28;4480151;31;32361;-63
2022/09/29 11:11:21;;;;;;;0.93;0.70;;;;;;;20.27;52.09;98285.50;4491318;31;34562;-63
2022/09/29 11:13:48;;;;;;;1.20;0.75;;;;;;;20.22;52.82;98286.97;4491278;31;34662;-63
2022/09/29 11:16:23;;;;;;;0.98;0.50;;;;;;;19.91;51.83;98295.78;4496464;31;34035;-64
2022/09/29 11:18:52;;;;;;;0.80;0.57;;;;;;;20.05;50.96;98295.78;4483978;31;33519;-63
2022/09/29 11:21:20;;;;;;;1.00;0.60;;;;;;;19.97;52.38;98302.25;4498187;31;33474;-63
2022/09/29 11:23:55;;;;;;;1.67;0.80;;;;;;;19.89;50.79;98299.75;4494827;31;33575;-63
2022/09/29 11:26:35;;;;;;;1.65;0.90;;;;;;;19.65;52.25;98301.22;4494712;31;35160;-63
2022/09/29 11:29:31;;;;;;;1.20;0.70;;;;;;;19.91;51.73;98303.94;4487516;31;35082;-63
2022/09/29 11:32:07;;;;;;;2.03;0.77;;;;;;;19.93;52.11;98301.00;4487405;31;33441;-62
2022/09/29 11:34:50;;;;;;;1.95;0.68;;;;;;;19.55;53.29;98294.28;4492713;31;33854;-63
2022/09/29 11:37:35;;;;;;;2.55;0.73;;;;;;;19.87;53.26;98291.84;4483801;31;32737;-63
2022/09/29 11:40:21;;;;;;;0.62;0.60;;;;;;;20.07;52.10;98293.69;4497516;31;33777;-62
2022/09/29 11:43:02;;;;;;;0.93;0.57;;;;;;;19.94;51.98;98291.81;4488368;31;32112;-62
2022/09/29 11:46:06;;;;;;;2.45;0.82;;;;;;;20.12;52.00;98293.87;4495758;31;34926;-63
2022/09/29 11:48:43;;;;;;;1.98;0.88;;;;;;;19.81;53.04;98298.09;4465892;31;33335;-62
2022/09/29 11:51:33;;;;;;;1.87;0.55;;;;;;;19.93;53.15;98299.09;4491830;31;35163;-64
2022/09/29 11:54:19;;;;;;;2.37;0.90;;;;;;;20.08;53.62;98303.50;4495116;31;33414;-63
2022/09/29 11:56:59;;;;;;;2.78;1.42;;;;;;;20.18;53.32;98309.31;4499594;31;33900;-64
2022/09/29 11:59:52;;;;;;;0.98;0.80;;;;;;;20.04;53.42;98305.81;4492268;31;32994;-62
2022/09/29 12:02:31;;;;;;;2.87;1.20;;;;;;;19.96;53.39;98306.84;4483534;31;33643;-64